sensor_id;sensor_type;location;lat;lon;timestamp;pressure;altitude;pressure_sealevel;temperature;humidity
7918;BME280;4004;42.624;23.386;2023-07-31T00:01:59;93841.94;;;22.05;96.59
7918;BME280;4004;42.624;23.386;2023-07-31T00:04:26;93842.63;;;22.09;94.88
7918;BME280;4004;42.624;23.386;2023-07-31T00:06:53;93845.91;;;22.04;95.13
7918;BME280;4004;42.624;23.386;2023-07-31T00:09:20;93844.47;;;22.00;95.75
7918;BME280;4004;42.624;23.386;2023-07-31T00:11:47;93841.94;;;22.05;96.62
7918;BME280;4004;42.624;23.386;2023-07-31T00:14:15;93864.09;;;22.11;99.41
7918;BME280;4004;42.624;23.386;2023-07-31T00:16:43;93849.78;;;21.78;100.00
7918;BME280;4004;42.624;23.386;2023-07-31T00:19:10;93861.69;;;21.42;100.00
7918;BME280;4004;42.624;23.386;2023-07-31T00:21:36;93848.13;;;21.22;100.00
7918;BME280;4004;42.624;23.386;2023-07-31T00:24:04;93854.06;;;21.04;100.00
7918;BME280;4004;42.624;23.386;2023-07-31T00:26:31;93851.59;;;20.93;100.00
7918;BME280;4004;42.624;23.386;2023-07-31T00:28:58;93852.25;;;20.81;100.00
7918;BME280;4004;42.624;23.386;2023-07-31T00:31:26;93837.56;;;20.58;100.00
7918;BME280;4004;42.624;23.386;2023-07-31T00:33:53;93836.19;;;20.50;100.00
7918;BME280;4004;42.624;23.386;2023-07-31T00:36:20;93833.72;;;20.39;100.00
7918;BME280;4004;42.624;23.386;2023-07-31T00:38:47;93824.41;;;20.37;100.00
7918;BME280;4004;42.624;23.386;2023-07-31T00:41:14;93825.00;;;20.44;100.00
7918;BME280;4004;42.624;23.386;2023-07-31T00:43:41;93822.56;;;20.66;100.00
7918;BME280;4004;42.624;23.386;2023-07-31T00:46:08;93821.34;;;20.67;100.00
7918;BME280;4004;42.624;23.386;2023-07-31T00:48:37;93812.47;;;20.80;100.00
7918;BME280;4004;42.624;23.386;2023-07-31T00:51:05;93820.16;;;20.85;100.00
7918;BME280;4004;42.624;23.386;2023-07-31T00:53:32;93826.22;;;20.76;100.00
7918;BME280;4004;42.624;23.386;2023-07-31T00:55:59;93833.06;;;20.68;100.00
7918;BME280;4004;42.624;23.386;2023-07-31T00:58:26;93832.03;;;20.62;100.00
7918;BME280;4004;42.624;23.386;2023-07-31T01:00:54;93823.16;;;20.58;100.00
7918;BME280;4004;42.624;23.386;2023-07-31T01:03:20;93826.41;;;20.69;100.00
7918;BME280;4004;42.624;23.386;2023-07-31T01:06:01;93825.72;;;20.81;100.00
7918;BME280;4004;42.624;23.386;2023-07-31T01:08:38;93810.25;;;20.91;100.00
7918;BME280;4004;42.624;23.386;2023-07-31T01:11:14;93825.28;;;20.99;100.00
7918;BME280;4004;42.624;23.386;2023-07-31T01:13:42;93820.31;;;21.10;100.00
7918;BME280;4004;42.624;23.386;2023-07-31T01:16:10;93790.59;;;20.96;100.00
7918;BME280;4004;42.624;23.386;2023-07-31T01:18:36;93812.44;;;21.13;100.00
7918;BME280;4004;42.624;23.386;2023-07-31T01:21:19;93778.00;;;20.86;100.00
7918;BME280;4004;42.624;23.386;2023-07-31T01:24:08;93769.25;;;20.91;100.00
7918;BME280;4004;42.624;23.386;2023-07-31T01:26:45;93811.03;;;21.21;100.00
7918;BME280;4004;42.624;23.386;2023-07-31T01:29:20;93818.06;;;21.05;100.00
7918;BME280;4004;42.624;23.386;2023-07-31T01:31:50;93807.94;;;21.06;100.00
7918;BME280;4004;42.624;23.386;2023-07-31T01:34:21;93808.59;;;21.10;100.00
7918;BME280;4004;42.624;23.386;2023-07-31T01:36:48;93798.56;;;20.90;100.00
7918;BME280;4004;42.624;23.386;2023-07-31T01:39:15;93766.72;;;20.67;100.00
7918;BME280;4004;42.624;23.386;2023-07-31T01:41:44;93794.47;;;20.82;100.00
7918;BME280;4004;42.624;23.386;2023-07-31T01:44:11;93787.72;;;20.87;100.00
7918;BME280;4004;42.624;23.386;2023-07-31T01:46:38;93791.13;;;20.91;100.00
7918;BME280;4004;42.624;23.386;2023-07-31T01:49:06;93788.91;;;20.86;100.00
7918;BME280;4004;42.624;23.386;2023-07-31T01:51:32;93793.69;;;20.82;100.00
7918;BME280;4004;42.624;23.386;2023-07-31T01:54:00;93754.16;;;20.54;100.00
7918;BME280;4004;42.624;23.386;2023-07-31T01:56:28;93787.81;;;20.67;100.00
7918;BME280;4004;42.624;23.386;2023-07-31T01:58:56;93789.44;;;20.64;100.00
7918;BME280;4004;42.624;23.386;2023-07-31T02:01:23;93803.16;;;20.44;100.00
7918;BME280;4004;42.624;23.386;2023-07-31T02:03:51;93802.81;;;20.42;100.00
7918;BME280;4004;42.624;23.386;2023-07-31T02:06:19;93811.34;;;20.44;100.00
7918;BME280;4004;42.624;23.386;2023-07-31T02:08:48;93810.16;;;20.45;100.00
7918;BME280;4004;42.624;23.386;2023-07-31T02:11:15;93811.75;;;20.43;100.00
7918;BME280;4004;42.624;23.386;2023-07-31T02:13:42;93812.91;;;20.45;100.00
7918;BME280;4004;42.624;23.386;2023-07-31T02:16:12;93811.75;;;20.43;100.00
7918;BME280;4004;42.624;23.386;2023-07-31T02:18:40;93809.72;;;20.47;100.00
7918;BME280;4004;42.624;23.386;2023-07-31T02:21:06;93811.75;;;20.43;100.00
7918;BME280;4004;42.624;23.386;2023-07-31T02:23:33;93824.25;;;20.44;100.00
7918;BME280;4004;42.624;23.386;2023-07-31T02:26:00;93828.94;;;20.43;100.00
7918;BME280;4004;42.624;23.386;2023-07-31T02:28:28;93824.06;;;20.35;100.00
7918;BME280;4004;42.624;23.386;2023-07-31T02:30:55;93832.44;;;20.44;100.00
7918;BME280;4004;42.624;23.386;2023-07-31T02:33:24;93824.41;;;20.53;100.00
7918;BME280;4004;42.624;23.386;2023-07-31T02:35:51;93825.69;;;20.48;100.00
7918;BME280;4004;42.624;23.386;2023-07-31T02:38:18;93826.09;;;20.47;100.00
7918;BME280;4004;42.624;23.386;2023-07-31T02:40:45;93826.72;;;20.55;100.00
7918;BME280;4004;42.624;23.386;2023-07-31T02:43:13;93821.19;;;20.58;100.00
7918;BME280;4004;42.624;23.386;2023-07-31T02:45:40;93827.34;;;20.79;100.00
7918;BME280;4004;42.624;23.386;2023-07-31T02:48:07;93831.59;;;20.80;100.00
7918;BME280;4004;42.624;23.386;2023-07-31T02:50:36;93824.84;;;20.84;100.00
7918;BME280;4004;42.624;23.386;2023-07-31T02:53:03;93828.09;;;20.96;100.00
7918;BME280;4004;42.624;23.386;2023-07-31T02:55:30;93827.31;;;20.95;100.00
7918;BME280;4004;42.624;23.386;2023-07-31T02:57:57;93825.97;;;21.03;100.00
7918;BME280;4004;42.624;23.386;2023-07-31T03:00:24;93838.22;;;21.11;100.00
7918;BME280;4004;42.624;23.386;2023-07-31T03:02:51;93798.97;;;20.89;100.00
7918;BME280;4004;42.624;23.386;2023-07-31T03:05:19;93831.31;;;21.07;100.00
7918;BME280;4004;42.624;23.386;2023-07-31T03:07:47;93827.75;;;21.10;100.00
7918;BME280;4004;42.624;23.386;2023-07-31T03:10:14;93835.84;;;21.14;100.00
7918;BME280;4004;42.624;23.386;2023-07-31T03:12:42;93838.22;;;21.11;100.00
7918;BME280;4004;42.624;23.386;2023-07-31T03:15:10;93829.34;;;21.07;100.00
7918;BME280;4004;42.624;23.386;2023-07-31T03:17:37;93830.75;;;20.99;100.00
7918;BME280;4004;42.624;23.386;2023-07-31T03:20:04;93827.31;;;20.95;100.00
7918;BME280;4004;42.624;23.386;2023-07-31T03:22:31;93830.31;;;20.84;100.00
7918;BME280;4004;42.624;23.386;2023-07-31T03:25:01;93833.81;;;20.85;100.00
7918;BME280;4004;42.624;23.386;2023-07-31T03:27:28;93838.19;;;20.82;100.00
7918;BME280;4004;42.624;23.386;2023-07-31T03:29:55;93835.78;;;20.84;100.00
7918;BME280;4004;42.624;23.386;2023-07-31T03:32:23;93837.41;;;20.82;100.00
7918;BME280;4004;42.624;23.386;2023-07-31T03:34:49;93847.13;;;20.83;100.00
7918;BME280;4004;42.624;23.386;2023-07-31T03:37:16;93857.22;;;20.86;100.00
7918;BME280;4004;42.624;23.386;2023-07-31T03:39:43;93849.03;;;20.86;100.00
7918;BME280;4004;42.624;23.386;2023-07-31T03:42:11;93854.03;;;20.87;100.00
7918;BME280;4004;42.624;23.386;2023-07-31T03:44:39;93845.25;;;20.96;100.00
7918;BME280;4004;42.624;23.386;2023-07-31T03:47:06;93850.28;;;20.98;100.00
7918;BME280;4004;42.624;23.386;2023-07-31T03:49:33;93853.38;;;21.00;100.00
7918;BME280;4004;42.624;23.386;2023-07-31T03:52:00;93855.69;;;21.01;100.00
7918;BME280;4004;42.624;23.386;2023-07-31T03:54:27;93854.88;;;21.01;100.00
7918;BME280;4004;42.624;23.386;2023-07-31T03:56:54;93864.97;;;21.04;100.00
7918;BME280;4004;42.624;23.386;2023-07-31T03:59:23;93860.63;;;21.06;100.00
7918;BME280;4004;42.624;23.386;2023-07-31T04:01:50;93871.72;;;21.16;100.00
7918;BME280;4004;42.624;23.386;2023-07-31T04:04:17;93866.00;;;21.10;100.00
7918;BME280;4004;42.624;23.386;2023-07-31T04:06:44;93866.09;;;21.06;100.00
7918;BME280;4004;42.624;23.386;2023-07-31T04:09:11;93875.81;;;21.07;100.00
7918;BME280;4004;42.624;23.386;2023-07-31T04:11:38;93877.03;;;21.06;100.00
7918;BME280;4004;42.624;23.386;2023-07-31T04:14:06;93883.34;;;21.03;100.00
7918;BME280;4004;42.624;23.386;2023-07-31T04:16:35;93875.72;;;21.11;100.00
7918;BME280;4004;42.624;23.386;2023-07-31T04:19:02;93885.47;;;21.12;100.00
7918;BME280;4004;42.624;23.386;2023-07-31T04:21:29;93886.66;;;21.11;100.00
7918;BME280;4004;42.624;23.386;2023-07-31T04:23:56;93880.00;;;21.12;100.00
7918;BME280;4004;42.624;23.386;2023-07-31T04:26:23;93872.59;;;21.13;100.00
7918;BME280;4004;42.624;23.386;2023-07-31T04:28:50;93874.53;;;21.12;100.00
7918;BME280;4004;42.624;23.386;2023-07-31T04:31:18;93874.22;;;21.10;100.00
7918;BME280;4004;42.624;23.386;2023-07-31T04:33:46;93866.31;;;21.12;100.00
7918;BME280;4004;42.624;23.386;2023-07-31T04:36:13;93878.53;;;21.24;100.00
7918;BME280;4004;42.624;23.386;2023-07-31T04:38:40;93872.88;;;21.31;100.00
7918;BME280;4004;42.624;23.386;2023-07-31T04:41:08;93872.63;;;21.42;100.00
7918;BME280;4004;42.624;23.386;2023-07-31T04:43:35;93872.09;;;21.47;100.00
7918;BME280;4004;42.624;23.386;2023-07-31T04:46:04;93879.63;;;21.43;100.00
7918;BME280;4004;42.624;23.386;2023-07-31T04:48:31;93876.09;;;21.59;100.00
7918;BME280;4004;42.624;23.386;2023-07-31T04:51:00;93872.59;;;21.58;100.00
7918;BME280;4004;42.624;23.386;2023-07-31T04:53:27;93879.00;;;21.68;100.00
7918;BME280;4004;42.624;23.386;2023-07-31T04:55:54;93880.78;;;21.87;100.00
7918;BME280;4004;42.624;23.386;2023-07-31T04:58:21;93876.28;;;21.81;100.00
7918;BME280;4004;42.624;23.386;2023-07-31T05:00:48;93863.91;;;21.76;100.00
7918;BME280;4004;42.624;23.386;2023-07-31T05:03:14;93873.25;;;21.91;100.00
7918;BME280;4004;42.624;23.386;2023-07-31T05:05:41;93872.06;;;22.34;100.00
7918;BME280;4004;42.624;23.386;2023-07-31T05:08:10;93867.19;;;23.50;94.85
7918;BME280;4004;42.624;23.386;2023-07-31T05:10:37;93876.00;;;24.96;83.46
7918;BME280;4004;42.624;23.386;2023-07-31T05:13:05;93879.69;;;26.50;71.52
7918;BME280;4004;42.624;23.386;2023-07-31T05:15:33;93875.13;;;26.89;66.44
7918;BME280;4004;42.624;23.386;2023-07-31T05:18:00;93879.13;;;27.12;64.17
7918;BME280;4004;42.624;23.386;2023-07-31T05:20:27;93880.75;;;27.52;62.11
7918;BME280;4004;42.624;23.386;2023-07-31T05:22:54;93887.13;;;28.06;59.13
7918;BME280;4004;42.624;23.386;2023-07-31T05:25:22;93884.94;;;28.40;57.41
7918;BME280;4004;42.624;23.386;2023-07-31T05:27:49;93871.69;;;28.44;56.87
7918;BME280;4004;42.624;23.386;2023-07-31T05:30:16;93880.88;;;29.01;55.27
7918;BME280;4004;42.624;23.386;2023-07-31T05:32:43;93879.16;;;30.00;51.76
7918;BME280;4004;42.624;23.386;2023-07-31T05:35:10;93866.13;;;30.06;50.54
7918;BME280;4004;42.624;23.386;2023-07-31T05:37:37;93865.19;;;30.67;48.39
7918;BME280;4004;42.624;23.386;2023-07-31T05:40:05;93883.50;;;30.85;47.58
7918;BME280;4004;42.624;23.386;2023-07-31T05:42:34;93882.16;;;30.75;47.81
7918;BME280;4004;42.624;23.386;2023-07-31T05:45:05;93886.03;;;30.05;48.97
7918;BME280;4004;42.624;23.386;2023-07-31T05:47:32;93852.56;;;30.08;48.15
7918;BME280;4004;42.624;23.386;2023-07-31T05:50:00;93879.25;;;30.58;47.20
7918;BME280;4004;42.624;23.386;2023-07-31T05:52:27;93878.44;;;31.21;46.02
7918;BME280;4004;42.624;23.386;2023-07-31T05:54:54;93890.16;;;31.79;44.59
7918;BME280;4004;42.624;23.386;2023-07-31T05:57:21;93869.31;;;32.35;42.64
7918;BME280;4004;42.624;23.386;2023-07-31T05:59:49;93902.25;;;32.76;41.20
7918;BME280;4004;42.624;23.386;2023-07-31T06:02:16;93896.69;;;32.53;40.96
7918;BME280;4004;42.624;23.386;2023-07-31T06:04:44;93898.88;;;32.15;40.62
7918;BME280;4004;42.624;23.386;2023-07-31T06:07:11;93908.63;;;31.94;41.57
7918;BME280;4004;42.624;23.386;2023-07-31T06:09:38;93907.22;;;31.61;41.76
7918;BME280;4004;42.624;23.386;2023-07-31T06:12:06;93895.56;;;30.50;43.53
7918;BME280;4004;42.624;23.386;2023-07-31T06:14:33;93866.53;;;29.73;45.03
7918;BME280;4004;42.624;23.386;2023-07-31T06:17:02;93886.69;;;29.03;47.00
7918;BME280;4004;42.624;23.386;2023-07-31T06:19:30;93898.72;;;29.14;46.57
7918;BME280;4004;42.624;23.386;2023-07-31T06:21:56;93891.81;;;30.27;43.72
7918;BME280;4004;42.624;23.386;2023-07-31T06:24:23;93893.38;;;30.86;42.68
7918;BME280;4004;42.624;23.386;2023-07-31T06:26:51;93900.22;;;31.77;41.31
7918;BME280;4004;42.624;23.386;2023-07-31T06:29:18;93901.91;;;32.23;40.56
7918;BME280;4004;42.624;23.386;2023-07-31T06:31:45;93904.09;;;31.91;40.63
7918;BME280;4004;42.624;23.386;2023-07-31T06:34:14;93895.34;;;31.17;41.60
7918;BME280;4004;42.624;23.386;2023-07-31T06:36:40;93891.88;;;30.33;42.57
7918;BME280;4004;42.624;23.386;2023-07-31T06:39:08;93882.63;;;29.33;43.21
7918;BME280;4004;42.624;23.386;2023-07-31T06:41:35;93872.56;;;29.16;43.85
7918;BME280;4004;42.624;23.386;2023-07-31T06:44:02;93882.34;;;28.81;44.87
7918;BME280;4004;42.624;23.386;2023-07-31T06:46:29;93871.84;;;29.36;43.58
7918;BME280;4004;42.624;23.386;2023-07-31T06:48:56;93878.84;;;29.72;43.49
7918;BME280;4004;42.624;23.386;2023-07-31T06:51:25;93873.50;;;29.89;42.71
7918;BME280;4004;42.624;23.386;2023-07-31T06:53:51;93881.22;;;30.05;42.99
7918;BME280;4004;42.624;23.386;2023-07-31T06:56:21;93892.84;;;30.30;42.32
7918;BME280;4004;42.624;23.386;2023-07-31T06:58:47;93894.16;;;30.34;42.79
7918;BME280;4004;42.624;23.386;2023-07-31T07:01:14;93884.72;;;30.52;42.76
7918;BME280;4004;42.624;23.386;2023-07-31T07:03:41;93894.34;;;30.57;42.40
7918;BME280;4004;42.624;23.386;2023-07-31T07:06:08;93890.25;;;30.00;42.72
7918;BME280;4004;42.624;23.386;2023-07-31T07:08:36;93845.47;;;29.05;44.13
7918;BME280;4004;42.624;23.386;2023-07-31T07:11:04;93893.84;;;29.24;44.82
7918;BME280;4004;42.624;23.386;2023-07-31T07:13:33;93884.91;;;29.70;44.69
7918;BME280;4004;42.624;23.386;2023-07-31T07:16:00;93892.56;;;30.28;43.55
7918;BME280;4004;42.624;23.386;2023-07-31T07:18:27;93887.13;;;30.39;42.24
7918;BME280;4004;42.624;23.386;2023-07-31T07:20:54;93886.53;;;30.29;42.42
7918;BME280;4004;42.624;23.386;2023-07-31T07:23:23;93895.63;;;30.30;42.94
7918;BME280;4004;42.624;23.386;2023-07-31T07:25:53;93868.91;;;30.32;42.11
7918;BME280;4004;42.624;23.386;2023-07-31T07:28:19;93881.38;;;29.96;42.50
7918;BME280;4004;42.624;23.386;2023-07-31T07:30:51;93891.56;;;30.05;42.21
7918;BME280;4004;42.624;23.386;2023-07-31T07:33:18;93889.94;;;30.19;42.25
7918;BME280;4004;42.624;23.386;2023-07-31T07:35:44;93902.84;;;30.48;41.85
7918;BME280;4004;42.624;23.386;2023-07-31T07:38:13;93891.66;;;29.90;42.31
7918;BME280;4004;42.624;23.386;2023-07-31T07:40:40;93902.66;;;30.05;41.20
7918;BME280;4004;42.624;23.386;2023-07-31T07:43:09;93910.41;;;30.47;40.83
7918;BME280;4004;42.624;23.386;2023-07-31T07:45:36;93912.16;;;31.03;40.30
7918;BME280;4004;42.624;23.386;2023-07-31T07:48:03;93915.66;;;30.97;40.10
7918;BME280;4004;42.624;23.386;2023-07-31T07:50:30;93924.56;;;30.81;40.25
7918;BME280;4004;42.624;23.386;2023-07-31T07:52:58;93930.50;;;30.94;40.09
7918;BME280;4004;42.624;23.386;2023-07-31T07:55:25;93920.13;;;30.89;40.22
7918;BME280;4004;42.624;23.386;2023-07-31T07:57:52;93918.78;;;31.11;39.78
7918;BME280;4004;42.624;23.386;2023-07-31T08:00:20;93938.47;;;31.45;39.54
7918;BME280;4004;42.624;23.386;2023-07-31T08:02:47;93935.78;;;31.24;39.44
7918;BME280;4004;42.624;23.386;2023-07-31T08:05:14;93931.38;;;31.06;39.41
7918;BME280;4004;42.624;23.386;2023-07-31T08:07:42;93920.00;;;31.04;39.78
7918;BME280;4004;42.624;23.386;2023-07-31T08:10:09;93922.22;;;30.68;40.17
7918;BME280;4004;42.624;23.386;2023-07-31T08:12:36;93920.38;;;30.60;40.70
7918;BME280;4004;42.624;23.386;2023-07-31T08:15:04;93913.53;;;30.29;40.93
7918;BME280;4004;42.624;23.386;2023-07-31T08:17:32;93921.31;;;30.04;41.17
7918;BME280;4004;42.624;23.386;2023-07-31T08:19:59;93917.19;;;29.59;42.01
7918;BME280;4004;42.624;23.386;2023-07-31T08:22:26;93924.59;;;29.47;42.13
7918;BME280;4004;42.624;23.386;2023-07-31T08:24:53;93917.28;;;29.64;41.98
7918;BME280;4004;42.624;23.386;2023-07-31T08:27:20;93917.66;;;29.37;42.50
7918;BME280;4004;42.624;23.386;2023-07-31T08:29:47;93920.31;;;28.96;42.35
7918;BME280;4004;42.624;23.386;2023-07-31T08:32:15;93919.38;;;28.69;43.39
7918;BME280;4004;42.624;23.386;2023-07-31T08:34:43;93913.81;;;29.13;42.50
7918;BME280;4004;42.624;23.386;2023-07-31T08:37:10;93907.13;;;29.20;42.77
7918;BME280;4004;42.624;23.386;2023-07-31T08:39:37;93902.63;;;29.08;42.44
7918;BME280;4004;42.624;23.386;2023-07-31T08:42:08;93897.78;;;29.18;42.14
7918;BME280;4004;42.624;23.386;2023-07-31T08:44:37;93910.16;;;29.07;41.93
7918;BME280;4004;42.624;23.386;2023-07-31T08:47:04;93913.63;;;28.87;42.61
7918;BME280;4004;42.624;23.386;2023-07-31T08:49:32;93910.44;;;28.59;43.28
7918;BME280;4004;42.624;23.386;2023-07-31T08:52:02;93910.50;;;28.65;43.01
7918;BME280;4004;42.624;23.386;2023-07-31T08:54:29;93910.78;;;28.82;43.12
7918;BME280;4004;42.624;23.386;2023-07-31T08:56:59;93917.28;;;28.79;43.48
7918;BME280;4004;42.624;23.386;2023-07-31T08:59:29;93917.78;;;28.77;43.09
7918;BME280;4004;42.624;23.386;2023-07-31T09:02:01;93911.94;;;28.60;43.01
7918;BME280;4004;42.624;23.386;2023-07-31T09:04:30;93908.41;;;28.45;43.35
7918;BME280;4004;42.624;23.386;2023-07-31T09:07:02;93907.84;;;28.56;43.53
7918;BME280;4004;42.624;23.386;2023-07-31T09:09:30;93913.56;;;28.82;43.13
7918;BME280;4004;42.624;23.386;2023-07-31T09:11:58;93916.84;;;29.01;42.79
7918;BME280;4004;42.624;23.386;2023-07-31T09:14:25;93907.06;;;28.85;42.80
7918;BME280;4004;42.624;23.386;2023-07-31T09:16:53;93906.31;;;28.40;42.70
7918;BME280;4004;42.624;23.386;2023-07-31T09:19:27;93907.09;;;28.55;42.46
7918;BME280;4004;42.624;23.386;2023-07-31T09:21:54;93911.16;;;28.45;42.81
7918;BME280;4004;42.624;23.386;2023-07-31T09:24:30;93907.94;;;28.76;42.02
7918;BME280;4004;42.624;23.386;2023-07-31T09:26:59;93887.28;;;28.92;41.99
7918;BME280;4004;42.624;23.386;2023-07-31T09:29:27;93895.75;;;29.03;41.40
7918;BME280;4004;42.624;23.386;2023-07-31T09:31:55;93894.78;;;28.86;41.06
7918;BME280;4004;42.624;23.386;2023-07-31T09:34:30;93895.75;;;29.03;40.71
7918;BME280;4004;42.624;23.386;2023-07-31T09:37:03;93888.72;;;29.17;41.08
7918;BME280;4004;42.624;23.386;2023-07-31T09:39:32;93883.38;;;29.13;40.89
7918;BME280;4004;42.624;23.386;2023-07-31T09:42:11;93881.50;;;29.46;40.56
7918;BME280;4004;42.624;23.386;2023-07-31T09:44:39;93875.16;;;29.60;40.10
7918;BME280;4004;42.624;23.386;2023-07-31T09:47:21;93877.66;;;29.38;41.16
7918;BME280;4004;42.624;23.386;2023-07-31T09:49:49;93876.78;;;29.11;41.38
7918;BME280;4004;42.624;23.386;2023-07-31T09:52:16;93875.56;;;29.32;41.32
7918;BME280;4004;42.624;23.386;2023-07-31T09:54:45;93877.66;;;29.58;41.06
7918;BME280;4004;42.624;23.386;2023-07-31T09:57:12;93875.03;;;29.69;40.49
7918;BME280;4004;42.624;23.386;2023-07-31T09:59:42;93873.78;;;29.91;39.91
7918;BME280;4004;42.624;23.386;2023-07-31T10:02:15;93882.88;;;29.71;40.83
7918;BME280;4004;42.624;23.386;2023-07-31T10:04:48;93877.78;;;29.49;40.48
7918;BME280;4004;42.624;23.386;2023-07-31T10:07:17;93885.16;;;29.72;39.59
7918;BME280;4004;42.624;23.386;2023-07-31T10:09:47;93875.53;;;29.88;39.32
7918;BME280;4004;42.624;23.386;2023-07-31T10:12:17;93874.22;;;29.84;39.99
7918;BME280;4004;42.624;23.386;2023-07-31T10:14:46;93877.94;;;29.81;40.30
7918;BME280;4004;42.624;23.386;2023-07-31T10:17:13;93877.50;;;29.67;40.33
7918;BME280;4004;42.624;23.386;2023-07-31T10:19:41;93874.75;;;29.67;40.31
7918;BME280;4004;42.624;23.386;2023-07-31T10:22:09;93875.88;;;29.75;39.26
7918;BME280;4004;42.624;23.386;2023-07-31T10:24:36;93862.97;;;29.72;38.41
7918;BME280;4004;42.624;23.386;2023-07-31T10:27:06;93876.66;;;30.02;38.51
7918;BME280;4004;42.624;23.386;2023-07-31T10:29:34;93871.56;;;29.95;39.16
7918;BME280;4004;42.624;23.386;2023-07-31T10:32:02;93875.00;;;29.90;39.24
7918;BME280;4004;42.624;23.386;2023-07-31T10:34:33;93869.03;;;29.71;39.28
7918;BME280;4004;42.624;23.386;2023-07-31T10:37:28;93865.06;;;29.78;38.72
7918;BME280;4004;42.624;23.386;2023-07-31T10:40:00;93854.31;;;29.85;38.32
7918;BME280;4004;42.624;23.386;2023-07-31T10:42:30;93867.69;;;29.87;38.06
7918;BME280;4004;42.624;23.386;2023-07-31T10:44:58;93856.91;;;29.68;39.09
7918;BME280;4004;42.624;23.386;2023-07-31T10:47:25;93854.59;;;29.67;38.56
7918;BME280;4004;42.624;23.386;2023-07-31T10:49:52;93851.50;;;29.80;38.50
7918;BME280;4004;42.624;23.386;2023-07-31T10:52:21;93852.16;;;29.74;39.17
7918;BME280;4004;42.624;23.386;2023-07-31T10:55:13;93838.94;;;29.64;39.26
7918;BME280;4004;42.624;23.386;2023-07-31T10:57:44;93852.91;;;29.54;39.26
7918;BME280;4004;42.624;23.386;2023-07-31T11:00:22;93846.06;;;29.29;39.16
7918;BME280;4004;42.624;23.386;2023-07-31T11:02:59;93846.78;;;29.45;39.08
7918;BME280;4004;42.624;23.386;2023-07-31T11:05:45;93847.81;;;29.27;38.98
7918;BME280;4004;42.624;23.386;2023-07-31T11:08:14;93844.56;;;28.93;39.49
7918;BME280;4004;42.624;23.386;2023-07-31T11:10:42;93835.13;;;29.41;39.12
7918;BME280;4004;42.624;23.386;2023-07-31T11:13:11;93830.56;;;29.58;38.30
7918;BME280;4004;42.624;23.386;2023-07-31T11:15:38;93827.75;;;29.73;37.44
7918;BME280;4004;42.624;23.386;2023-07-31T11:18:05;93831.53;;;29.75;37.25
7918;BME280;4004;42.624;23.386;2023-07-31T11:20:34;93836.38;;;29.81;37.05
7918;BME280;4004;42.624;23.386;2023-07-31T11:23:01;93831.38;;;29.85;36.97
7918;BME280;4004;42.624;23.386;2023-07-31T11:25:29;93838.03;;;29.72;37.19
7918;BME280;4004;42.624;23.386;2023-07-31T11:27:57;93831.75;;;29.72;37.01
7918;BME280;4004;42.624;23.386;2023-07-31T11:30:26;93837.69;;;29.85;37.76
7918;BME280;4004;42.624;23.386;2023-07-31T11:32:52;93827.38;;;29.65;37.35
7918;BME280;4004;42.624;23.386;2023-07-31T11:35:19;93833.81;;;29.36;37.62
7918;BME280;4004;42.624;23.386;2023-07-31T11:37:46;93832.78;;;29.54;37.43
7918;BME280;4004;42.624;23.386;2023-07-31T11:40:14;93831.13;;;29.62;36.41
7918;BME280;4004;42.624;23.386;2023-07-31T11:42:42;93818.41;;;29.70;36.31
7918;BME280;4004;42.624;23.386;2023-07-31T11:45:09;93829.81;;;29.78;36.64
7918;BME280;4004;42.624;23.386;2023-07-31T11:47:38;93815.06;;;29.66;36.34
7918;BME280;4004;42.624;23.386;2023-07-31T11:50:07;93823.94;;;29.70;36.49
7918;BME280;4004;42.624;23.386;2023-07-31T11:52:38;93822.81;;;29.62;36.46
7918;BME280;4004;42.624;23.386;2023-07-31T11:55:08;93817.69;;;29.34;37.20
7918;BME280;4004;42.624;23.386;2023-07-31T11:57:37;93814.91;;;29.34;37.40
7918;BME280;4004;42.624;23.386;2023-07-31T12:00:08;93821.53;;;29.37;37.84
7918;BME280;4004;42.624;23.386;2023-07-31T12:02:38;93820.13;;;29.47;38.22
7918;BME280;4004;42.624;23.386;2023-07-31T12:05:05;93813.34;;;29.48;37.62
7918;BME280;4004;42.624;23.386;2023-07-31T12:07:49;93810.03;;;29.44;37.95
7918;BME280;4004;42.624;23.386;2023-07-31T12:10:24;93806.34;;;29.32;38.46
7918;BME280;4004;42.624;23.386;2023-07-31T12:13:00;93808.84;;;29.30;37.56
7918;BME280;4004;42.624;23.386;2023-07-31T12:15:32;93807.03;;;29.27;37.65
7918;BME280;4004;42.624;23.386;2023-07-31T12:18:04;93807.66;;;29.17;37.66
7918;BME280;4004;42.624;23.386;2023-07-31T12:20:32;93791.16;;;29.07;37.53
7918;BME280;4004;42.624;23.386;2023-07-31T12:22:59;93808.72;;;29.40;37.34
7918;BME280;4004;42.624;23.386;2023-07-31T12:25:31;93803.16;;;29.60;37.10
7918;BME280;4004;42.624;23.386;2023-07-31T12:28:04;93790.88;;;29.67;37.02
7918;BME280;4004;42.624;23.386;2023-07-31T12:30:33;93786.78;;;29.83;36.70
7918;BME280;4004;42.624;23.386;2023-07-31T12:33:06;93797.00;;;29.97;36.92
7918;BME280;4004;42.624;23.386;2023-07-31T12:35:41;93803.06;;;30.01;36.95
7918;BME280;4004;42.624;23.386;2023-07-31T12:38:08;93795.75;;;29.98;36.14
7918;BME280;4004;42.624;23.386;2023-07-31T12:40:37;93786.56;;;29.86;37.05
7918;BME280;4004;42.624;23.386;2023-07-31T12:43:04;93788.31;;;29.84;37.64
7918;BME280;4004;42.624;23.386;2023-07-31T12:45:31;93794.00;;;29.74;38.01
7918;BME280;4004;42.624;23.386;2023-07-31T12:47:59;93789.72;;;29.73;38.49
7918;BME280;4004;42.624;23.386;2023-07-31T12:50:27;93774.97;;;29.62;38.32
7918;BME280;4004;42.624;23.386;2023-07-31T12:52:54;93784.56;;;29.66;37.84
7918;BME280;4004;42.624;23.386;2023-07-31T12:55:21;93776.56;;;29.68;37.18
7918;BME280;4004;42.624;23.386;2023-07-31T12:57:48;93774.78;;;29.45;38.08
7918;BME280;4004;42.624;23.386;2023-07-31T13:00:15;93759.28;;;29.12;37.87
7918;BME280;4004;42.624;23.386;2023-07-31T13:02:43;93775.13;;;29.11;37.92
7918;BME280;4004;42.624;23.386;2023-07-31T13:05:10;93770.47;;;29.03;37.67
7918;BME280;4004;42.624;23.386;2023-07-31T13:07:40;93764.38;;;28.99;37.52
7918;BME280;4004;42.624;23.386;2023-07-31T13:10:09;93766.63;;;29.15;37.76
7918;BME280;4004;42.624;23.386;2023-07-31T13:12:35;93759.38;;;29.18;37.70
7918;BME280;4004;42.624;23.386;2023-07-31T13:15:03;93762.88;;;29.18;38.18